Time;durP1;ratioP1;P1;durP2;ratioP2;P2;SDS_P1;SDS_P2;PMS_P1;PMS_P2;Temp;Humidity;BMP_temperature;BMP_pressure;BME280_temperature;BME280_humidity;BME280_pressure;Samples;Min_cycle;Max_cycle;Signal;HPM_P1;HPM_P2
2021/05/08 00:02:51;;;;;;;10.20;7.93;;;;;;;4.97;59.60;100657.66;10309925;28;20247;-71
2021/05/08 00:07:54;;;;;;;13.80;7.45;;;;;;;4.94;59.41;100661.34;10306965;28;20231;-71
2021/05/08 00:12:55;;;;;;;11.45;8.30;;;;;;;5.00;59.00;100661.03;10307331;28;20250;-71
2021/05/08 00:17:57;;;;;;;8.13;7.22;;;;;;;5.01;59.12;100660.06;10269119;28;20262;-71
2021/05/08 00:23:00;;;;;;;11.98;8.15;;;;;;;4.97;59.15;100655.00;10265572;28;20255;-71
2021/05/08 00:28:02;;;;;;;11.68;7.80;;;;;;;4.76;60.00;100655.16;10267495;28;20329;-71
2021/05/08 00:33:06;;;;;;;13.85;9.18;;;;;;;4.82;59.97;100659.31;10267551;28;20240;-71
2021/05/08 00:38:09;;;;;;;14.85;9.48;;;;;;;4.72;60.64;100656.28;10267418;28;20231;-71
2021/05/08 00:43:11;;;;;;;15.23;9.15;;;;;;;4.64;61.45;100654.97;10267797;28;20255;-71
2021/05/08 00:48:14;;;;;;;15.43;10.15;;;;;;;4.68;61.75;100656.50;10266449;28;20331;-71
2021/05/08 00:53:19;;;;;;;16.05;10.15;;;;;;;4.67;61.53;100649.47;10265575;28;20418;-71
2021/05/08 00:58:21;;;;;;;13.18;9.80;;;;;;;4.59;61.83;100652.53;10267360;28;20254;-71
2021/05/08 01:03:24;;;;;;;13.05;9.55;;;;;;;4.50;62.27;100658.31;10265709;28;20383;-71
2021/05/08 01:08:28;;;;;;;15.73;10.30;;;;;;;4.52;62.23;100645.78;10264487;28;21535;-71
2021/05/08 01:13:32;;;;;;;16.95;10.13;;;;;;;4.47;62.41;100650.50;10268024;28;20425;-71
2021/05/08 01:18:34;;;;;;;17.80;11.03;;;;;;;4.43;63.11;100651.59;10304971;28;20231;-72
2021/05/08 01:23:36;;;;;;;19.63;10.63;;;;;;;4.30;63.38;100651.34;10307314;28;20242;-72
2021/05/08 01:28:40;;;;;;;17.00;10.97;;;;;;;4.15;63.67;100651.19;10303594;28;20235;-71
2021/05/08 01:33:44;;;;;;;18.55;12.35;;;;;;;4.10;64.13;100647.91;10304678;28;20246;-71
2021/05/08 01:38:49;;;;;;;16.90;11.20;;;;;;;4.09;64.01;100638.22;10311659;28;20242;-71
2021/05/08 01:43:51;;;;;;;19.50;12.17;;;;;;;4.13;64.02;100633.59;10255304;28;20988;-71
2021/05/08 01:48:54;;;;;;;21.67;12.07;;;;;;;4.16;63.67;100647.59;10247558;28;20294;-71
2021/05/08 01:53:56;;;;;;;18.00;12.17;;;;;;;4.25;63.12;100650.72;10232731;28;20338;-71
2021/05/08 01:58:59;;;;;;;19.52;12.00;;;;;;;4.24;63.32;100647.22;10248323;28;20240;-72
2021/05/08 02:04:05;;;;;;;16.13;11.17;;;;;;;4.28;63.07;100639.94;10247522;28;20229;-71
2021/05/08 02:09:08;;;;;;;19.30;12.20;;;;;;;4.25;62.98;100640.09;10231553;28;20262;-71
2021/05/08 02:14:20;;;;;;;22.00;12.55;;;;;;;4.16;63.11;100647.59;10264188;28;20290;-71
2021/05/08 02:19:23;;;;;;;18.33;11.73;;;;;;;4.03;63.38;100648.28;10325542;28;20312;-71
2021/05/08 02:24:27;;;;;;;22.88;13.02;;;;;;;3.84;63.47;100643.00;10310111;28;20259;-72
2021/05/08 02:29:28;;;;;;;16.67;11.23;;;;;;;3.69;63.74;100641.97;10312785;28;20265;-71
2021/05/08 02:34:31;;;;;;;15.23;10.50;;;;;;;3.61;63.85;100636.16;10309691;28;20243;-71
2021/05/08 02:39:34;;;;;;;16.63;11.37;;;;;;;3.62;64.19;100636.09;10309160;28;20246;-71
2021/05/08 02:44:37;;;;;;;17.40;11.10;;;;;;;3.70;64.00;100643.66;10325498;28;20668;-71
2021/05/08 02:49:40;;;;;;;16.85;10.88;;;;;;;3.58;63.65;100633.66;10324203;28;20351;-71
2021/05/08 02:54:45;;;;;;;18.40;11.70;;;;;;;3.41;63.95;100642.44;10309559;28;20309;-71
2021/05/08 02:59:47;;;;;;;19.77;11.40;;;;;;;3.24;64.18;100636.09;10308358;28;20235;-71
2021/05/08 03:04:49;;;;;;;18.77;12.17;;;;;;;3.16;64.64;100632.94;10309018;28;20247;-71
2021/05/08 03:09:52;;;;;;;18.33;11.73;;;;;;;3.07;64.61;100625.38;10310324;28;20243;-71
2021/05/08 03:14:55;;;;;;;21.23;13.17;;;;;;;3.03;64.95;100629.13;10278721;28;20235;-71
2021/05/08 03:19:57;;;;;;;22.47;14.90;;;;;;;3.03;65.66;100630.00;10267274;28;20349;-71
2021/05/08 03:25:01;;;;;;;23.53;14.60;;;;;;;3.07;66.12;100633.34;10270613;28;20263;-71
2021/05/08 03:30:04;;;;;;;23.50;14.97;;;;;;;3.02;66.32;100630.94;10260044;28;20322;-71
2021/05/08 03:35:08;;;;;;;25.27;15.27;;;;;;;2.93;66.56;100623.38;10260096;28;20703;-72
2021/05/08 03:40:12;;;;;;;23.97;14.80;;;;;;;2.90;66.50;100628.81;10269821;28;20240;-72
2021/05/08 03:45:14;;;;;;;24.83;14.07;;;;;;;2.90;66.72;100627.97;10270209;28;20343;-71
2021/05/08 03:50:16;;;;;;;26.33;15.40;;;;;;;2.79;67.04;100631.09;10266939;28;21420;-71
2021/05/08 03:55:20;;;;;;;25.13;14.00;;;;;;;2.66;67.21;100624.59;10269124;28;20239;-71
2021/05/08 04:00:22;;;;;;;25.17;14.13;;;;;;;2.62;67.47;100631.84;10267766;28;20228;-71
2021/05/08 04:05:24;;;;;;;24.73;15.50;;;;;;;2.60;67.55;100637.19;10269062;28;20322;-71
2021/05/08 04:10:27;;;;;;;25.73;15.37;;;;;;;2.64;67.21;100626.50;10268937;28;20286;-71
2021/05/08 04:15:29;;;;;;;26.10;15.03;;;;;;;2.64;67.29;100626.50;10286853;28;20250;-71
2021/05/08 04:20:31;;;;;;;26.13;15.90;;;;;;;2.64;67.50;100627.34;10308697;28;20281;-71
2021/05/08 04:25:39;;;;;;;28.20;15.27;;;;;;;2.71;67.31;100626.13;10309112;28;20235;-71
2021/05/08 04:30:40;;;;;;;27.87;16.83;;;;;;;2.88;67.07;100635.13;10306056;28;20766;-71
2021/05/08 04:35:58;;;;;;;28.17;16.17;;;;;;;3.02;66.63;100622.13;10309274;28;20732;-71
2021/05/08 04:41:01;;;;;;;32.83;17.23;;;;;;;2.98;66.44;100628.47;10305843;28;20301;-71
2021/05/08 04:46:02;;;;;;;28.77;15.63;;;;;;;3.10;66.24;100621.72;10309121;28;20238;-71
2021/05/08 04:51:05;;;;;;;27.00;16.07;;;;;;;3.17;66.26;100631.16;10307205;28;20249;-72
2021/05/08 04:56:07;;;;;;;32.40;17.17;;;;;;;3.15;66.24;100633.84;10322913;28;20247;-72
2021/05/08 05:01:09;;;;;;;31.10;16.57;;;;;;;3.34;65.82;100636.53;10306711;28;20231;-71
2021/05/08 05:06:11;;;;;;;26.07;15.50;;;;;;;3.54;65.51;100643.56;10307780;28;20238;-72
2021/05/08 05:11:15;;;;;;;28.77;17.30;;;;;;;3.71;65.41;100640.09;10313227;28;20235;-71
2021/05/08 05:16:17;;;;;;;30.17;17.57;;;;;;;3.84;64.99;100637.69;10297125;28;21371;-73
2021/05/08 05:21:19;;;;;;;27.83;16.70;;;;;;;3.97;64.97;100641.47;10279405;28;20446;-71
2021/05/08 05:26:22;;;;;;;31.70;17.33;;;;;;;3.97;64.71;100644.13;10280257;28;20236;-71
2021/05/08 05:31:24;;;;;;;30.03;16.60;;;;;;;4.09;64.37;100640.88;10279382;28;20238;-71
2021/05/08 05:36:27;;;;;;;28.95;16.67;;;;;;;4.21;64.00;100642.06;10280107;28;20251;-71
2021/05/08 05:41:30;;;;;;;20.02;10.60;;;;;;;4.34;64.08;100640.50;10280874;28;20251;-71
2021/05/08 05:46:32;;;;;;;27.87;13.80;;;;;;;4.66;64.21;100631.78;10280314;28;20231;-72
2021/05/08 05:51:34;;;;;;;20.48;10.88;;;;;;;5.00;63.29;100631.75;10281216;28;20242;-71
2021/05/08 05:56:37;;;;;;;18.30;11.48;;;;;;;5.26;61.85;100640.97;10279332;28;20247;-71
2021/05/08 06:01:39;;;;;;;22.67;13.35;;;;;;;5.67;61.42;100645.78;10274204;28;20701;-71
2021/05/08 06:06:41;;;;;;;18.00;11.88;;;;;;;6.00;60.56;100647.50;10258751;28;20246;-71
2021/05/08 06:11:43;;;;;;;16.23;11.02;;;;;;;6.18;60.60;100634.91;10240222;28;20246;-70
2021/05/08 06:16:45;;;;;;;20.95;12.00;;;;;;;6.44;59.89;100643.16;10310560;28;20238;-71
2021/05/08 06:21:47;;;;;;;25.35;14.43;;;;;;;6.79;59.92;100633.88;10333133;28;20279;-71
2021/05/08 06:26:50;;;;;;;18.27;11.82;;;;;;;7.15;58.48;100626.38;10312468;28;20235;-71
2021/05/08 06:31:52;;;;;;;22.55;13.95;;;;;;;7.54;57.47;100631.00;10312433;28;20270;-71
2021/05/08 06:36:54;;;;;;;23.13;14.32;;;;;;;7.70;55.57;100631.72;10313647;28;20243;-71
2021/05/08 06:41:57;;;;;;;16.33;10.88;;;;;;;8.10;55.28;100633.59;10312382;28;20250;-72
2021/05/08 06:46:59;;;;;;;19.10;11.18;;;;;;;8.39;54.64;100627.16;10298520;28;20228;-71
2021/05/08 06:52:01;;;;;;;18.85;12.73;;;;;;;8.88;53.08;100627.41;10272338;28;20232;-71
2021/05/08 06:57:05;;;;;;;20.17;12.85;;;;;;;8.68;53.25;100627.00;10272632;28;20386;-72
2021/05/08 07:02:07;;;;;;;21.52;13.57;;;;;;;8.68;54.50;100628.81;10272197;28;20252;-71
2021/05/08 07:07:09;;;;;;;21.73;13.70;;;;;;;8.97;54.12;100630.31;10271296;28;20449;-71
2021/05/08 07:12:12;;;;;;;18.33;12.70;;;;;;;9.40;53.04;100619.19;10271113;28;20246;-72
2021/05/08 07:17:14;;;;;;;15.98;10.80;;;;;;;9.79;50.48;100624.44;10252873;28;20236;-72
2021/05/08 07:22:19;;;;;;;18.35;11.30;;;;;;;9.90;50.69;100622.72;10230671;28;20745;-71
2021/05/08 07:27:23;;;;;;;21.15;11.52;;;;;;;10.05;49.87;100611.81;10231813;28;20233;-72
2021/05/08 07:32:25;;;;;;;19.38;12.30;;;;;;;10.56;49.96;100606.97;10231469;28;20247;-72
2021/05/08 07:37:28;;;;;;;18.58;12.52;;;;;;;10.92;48.81;100606.91;10230853;28;20242;-72
2021/05/08 07:42:31;;;;;;;18.63;12.45;;;;;;;11.39;48.01;100604.97;10231122;28;20722;-71
2021/05/08 07:47:33;;;;;;;20.20;12.60;;;;;;;11.52;48.36;100605.69;10232157;28;20271;-72
2021/05/08 07:52:35;;;;;;;19.70;12.63;;;;;;;11.84;48.11;100589.53;10231315;28;20232;-72
2021/05/08 07:57:38;;;;;;;15.75;10.55;;;;;;;11.86;45.09;100586.75;10230560;28;20255;-72
2021/05/08 08:02:40;;;;;;;13.55;9.93;;;;;;;12.16;44.29;100581.47;10243990;28;20243;-71
2021/05/08 08:07:43;;;;;;;15.48;9.93;;;;;;;12.43;42.85;100582.00;10270138;28;20239;-72
2021/05/08 08:12:46;;;;;;;16.70;11.00;;;;;;;12.65;44.32;100565.66;10270934;28;20381;-74
2021/05/08 08:17:48;;;;;;;16.65;10.82;;;;;;;13.19;43.29;100566.31;10287666;28;20259;-73
2021/05/08 08:22:50;;;;;;;13.13;7.90;;;;;;;13.52;38.79;100565.19;10230352;28;20616;-75
2021/05/08 08:27:53;;;;;;;14.18;7.68;;;;;;;13.34;38.57;100554.16;10231382;28;20879;-72
2021/05/08 08:32:55;;;;;;;9.77;5.95;;;;;;;13.39;37.10;100565.41;10226746;28;20235;-72
2021/05/08 08:37:57;;;;;;;10.55;6.15;;;;;;;13.89;33.92;100551.00;10228654;28;20604;-72
2021/05/08 08:43:00;;;;;;;9.15;5.38;;;;;;;13.69;33.57;100551.00;10226629;28;20241;-73
2021/05/08 08:48:07;;;;;;;12.73;7.15;;;;;;;13.56;33.48;100550.41;10240950;28;20564;-72
2021/05/08 08:53:11;;;;;;;12.00;6.13;;;;;;;14.00;32.31;100544.59;10247268;28;20228;-73
2021/05/08 08:58:14;;;;;;;9.55;5.75;;;;;;;15.04;33.25;100540.09;10265920;28;21296;-73
2021/05/08 09:03:15;;;;;;;9.43;6.32;;;;;;;14.92;31.46;100533.16;10266053;28;20609;-73
2021/05/08 09:08:18;;;;;;;10.45;6.45;;;;;;;13.79;31.58;100531.22;10264604;28;20254;-73
2021/05/08 09:13:23;;;;;;;11.80;6.72;;;;;;;13.58;34.01;100525.97;10267955;28;20243;-72
2021/05/08 09:18:34;;;;;;;8.18;5.85;;;;;;;14.25;31.45;100516.97;10305853;28;20235;-72
2021/05/08 09:23:38;;;;;;;9.45;6.22;;;;;;;14.72;33.36;100508.06;10308168;28;21449;-72
2021/05/08 09:28:41;;;;;;;9.70;5.90;;;;;;;14.02;31.74;100512.91;10306839;28;20956;-72
2021/05/08 09:33:50;;;;;;;10.70;6.55;;;;;;;14.04;32.22;100494.69;10304884;28;20235;-73
2021/05/08 09:38:53;;;;;;;11.07;6.38;;;;;;;14.19;34.31;100490.56;10308235;28;20234;-72
2021/05/08 09:43:56;;;;;;;10.73;6.82;;;;;;;14.68;33.99;100490.44;10272385;28;20243;-72
2021/05/08 09:49:09;;;;;;;12.35;6.63;;;;;;;14.35;32.60;100480.00;10255208;28;20249;-72
2021/05/08 09:54:14;;;;;;;8.73;6.30;;;;;;;14.40;33.62;100492.22;10254225;28;20595;-72
2021/05/08 09:59:25;;;;;;;11.65;6.35;;;;;;;14.31;32.79;100466.91;10247141;28;20231;-71
2021/05/08 10:04:27;;;;;;;7.38;6.00;;;;;;;14.67;32.35;100459.84;10247843;28;21663;-72
2021/05/08 10:09:30;;;;;;;11.57;6.07;;;;;;;15.21;33.03;100446.44;10233932;28;20244;-71
2021/05/08 10:14:34;;;;;;;8.15;5.30;;;;;;;14.28;32.79;100453.69;10240757;28;20286;-72
2021/05/08 10:19:50;;;;;;;9.18;5.80;;;;;;;14.98;32.77;100441.47;10271875;28;20236;-71
2021/05/08 10:24:52;;;;;;;6.95;4.40;;;;;;;15.07;31.26;100431.59;10265802;28;20610;-72
2021/05/08 10:29:56;;;;;;;5.95;4.70;;;;;;;14.81;30.75;100443.13;10245239;28;20315;-70
2021/05/08 10:35:02;;;;;;;6.32;4.13;;;;;;;14.71;31.70;100434.22;10233637;28;20237;-69
2021/05/08 10:40:15;;;;;;;8.93;4.55;;;;;;;14.33;31.91;100414.44;10228983;28;20271;-70
2021/05/08 10:45:35;;;;;;;8.07;5.50;;;;;;;14.70;31.75;100401.91;10230921;28;20236;-70
2021/05/08 10:50:47;;;;;;;6.82;4.65;;;;;;;15.60;32.27;100395.56;10233934;28;20259;-70
2021/05/08 10:55:52;;;;;;;9.23;5.28;;;;;;;15.66;33.20;100384.13;10237870;28;20256;-70
2021/05/08 11:00:56;;;;;;;6.78;4.80;;;;;;;15.26;32.96;100371.06;10231412;28;20338;-71
2021/05/08 11:06:02;;;;;;;6.10;4.60;;;;;;;15.48;30.86;100372.47;10228230;28;20917;-70
2021/05/08 11:11:05;;;;;;;7.25;3.33;;;;;;;15.77;29.93;100376.75;10230618;28;20590;-70
2021/05/08 11:16:09;;;;;;;4.43;3.38;;;;;;;15.24;29.05;100362.25;10246015;28;20235;-71
2021/05/08 11:21:37;;;;;;;5.88;3.10;;;;;;;15.88;29.31;100363.81;10271130;28;20239;-71
2021/05/08 11:26:44;;;;;;;4.50;3.30;;;;;;;15.88;30.04;100346.72;10258847;28;20236;-70
2021/05/08 11:31:50;;;;;;;4.65;3.63;;;;;;;16.78;29.69;100349.81;10237544;28;20840;-70
2021/05/08 11:36:56;;;;;;;4.28;3.00;;;;;;;17.95;27.31;100329.66;10229872;28;20266;-71
2021/05/08 11:42:01;;;;;;;3.70;2.33;;;;;;;17.07;26.98;100333.09;10244062;28;20235;-71
2021/05/08 11:47:05;;;;;;;6.00;3.03;;;;;;;17.07;27.05;100318.69;10283154;28;20239;-71
2021/05/08 11:52:09;;;;;;;8.65;3.60;;;;;;;16.78;27.76;100312.72;10270397;28;20279;-70
2021/05/08 11:57:21;;;;;;;3.47;2.90;;;;;;;17.81;26.89;100298.63;10268150;28;20338;-71
2021/05/08 12:02:26;;;;;;;4.88;2.92;;;;;;;17.30;25.67;100287.16;10272094;28;20326;-70
2021/05/08 12:07:29;;;;;;;3.50;2.50;;;;;;;16.12;27.31;100297.22;10269375;28;20815;-70
2021/05/08 12:12:44;;;;;;;5.05;2.95;;;;;;;15.79;28.79;100285.38;10270354;28;20240;-70
2021/05/08 12:17:48;;;;;;;4.10;3.05;;;;;;;15.92;28.14;100289.34;10305685;28;20235;-72
2021/05/08 12:22:51;;;;;;;3.72;2.65;;;;;;;15.53;28.30;100282.69;10307580;28;20223;-70
2021/05/08 12:28:18;;;;;;;4.32;3.15;;;;;;;15.34;28.75;100271.03;10288843;28;20252;-70
2021/05/08 12:33:22;;;;;;;5.57;3.10;;;;;;;16.05;28.95;100264.50;10226635;28;20243;-70
2021/05/08 12:38:27;;;;;;;3.00;2.50;;;;;;;16.30;28.46;100256.50;10227903;28;20722;-70
2021/05/08 12:43:30;;;;;;;3.10;2.50;;;;;;;16.62;27.96;100241.31;10229156;28;20775;-71
2021/05/08 12:48:37;;;;;;;4.53;2.97;;;;;;;15.99;29.19;100239.91;10227424;28;20248;-71
2021/05/08 12:53:39;;;;;;;5.38;3.08;;;;;;;16.11;29.49;100225.06;10226545;28;20259;-71
2021/05/08 12:58:42;;;;;;;4.38;3.08;;;;;;;16.26;29.92;100220.72;10228349;28;20252;-70
2021/05/08 13:03:45;;;;;;;3.08;2.70;;;;;;;16.08;28.55;100223.53;10226603;28;20267;-70
2021/05/08 13:08:48;;;;;;;2.78;2.20;;;;;;;15.90;29.45;100225.50;10226756;28;20243;-70
2021/05/08 13:13:50;;;;;;;2.80;2.58;;;;;;;16.72;29.53;100206.75;10234233;28;20238;-70
2021/05/08 13:18:54;;;;;;;3.22;2.60;;;;;;;16.12;29.43;100205.09;10309584;28;20231;-71
2021/05/08 13:23:56;;;;;;;3.47;2.85;;;;;;;15.67;31.05;100208.97;10308627;28;20377;-71
2021/05/08 13:28:58;;;;;;;3.10;2.58;;;;;;;15.02;31.66;100212.09;10308206;28;20334;-70
2021/05/08 13:34:00;;;;;;;2.70;2.40;;;;;;;17.01;29.46;100196.25;10314005;28;20238;-71
2021/05/08 13:39:03;;;;;;;2.70;2.40;;;;;;;16.86;29.79;100191.66;10295103;28;20240;-71
2021/05/08 13:44:05;;;;;;;2.90;2.50;;;;;;;16.64;30.49;100172.34;10276035;28;20227;-71
2021/05/08 13:49:08;;;;;;;3.55;2.75;;;;;;;16.42;30.27;100165.72;10273552;28;20236;-71
2021/05/08 13:54:10;;;;;;;4.10;3.08;;;;;;;16.01;30.17;100151.22;10273619;28;20240;-71
2021/05/08 13:59:12;;;;;;;3.15;2.88;;;;;;;15.96;30.53;100143.56;10273349;28;20250;-71
2021/05/08 14:11:33;;;;;;;4.38;2.60;;;;;;;15.48;31.00;100127.00;10274735;28;20303;-71
2021/05/08 14:16:35;;;;;;;3.40;2.38;;;;;;;15.71;32.30;100118.28;10299880;28;20297;-71
2021/05/08 14:21:37;;;;;;;7.35;2.70;;;;;;;15.53;32.37;100112.97;10313925;28;20337;-71
2021/05/08 14:26:40;;;;;;;4.90;2.30;;;;;;;14.94;33.29;100111.97;10313991;28;20729;-71
2021/05/08 14:31:42;;;;;;;3.88;2.05;;;;;;;14.19;35.44;100120.47;10310988;28;20238;-71
2021/05/08 14:36:44;;;;;;;2.35;1.60;;;;;;;13.63;36.06;100132.34;10303368;28;20626;-71
2021/05/08 14:41:47;;;;;;;3.13;1.80;;;;;;;13.48;37.23;100127.44;10249185;28;20242;-71
2021/05/08 14:46:49;;;;;;;4.35;2.35;;;;;;;14.21;36.61;100107.66;10262025;28;20236;-71
2021/05/08 14:51:50;;;;;;;4.03;2.50;;;;;;;13.90;37.59;100116.13;10270811;28;20240;-71
2021/05/08 14:56:53;;;;;;;3.88;2.40;;;;;;;13.68;40.01;100103.88;10272213;28;20235;-71
2021/05/08 15:01:57;;;;;;;2.85;2.50;;;;;;;13.22;39.51;100105.69;10265842;28;20240;-71
2021/05/08 15:06:59;;;;;;;2.67;2.15;;;;;;;13.13;39.59;100106.53;10247760;28;20815;-71
2021/05/08 15:12:02;;;;;;;2.10;2.00;;;;;;;13.24;39.64;100098.25;10257017;28;20250;-71
2021/05/08 15:17:04;;;;;;;2.35;2.05;;;;;;;13.26;41.03;100088.19;10300817;28;20246;-71
2021/05/08 15:22:06;;;;;;;1.92;1.75;;;;;;;13.13;40.14;100098.44;10313221;28;20242;-71
2021/05/08 15:27:09;;;;;;;2.58;2.05;;;;;;;12.23;45.07;100101.56;10309236;28;20230;-71
2021/05/08 15:32:11;;;;;;;2.58;2.30;;;;;;;11.81;45.00;100083.84;10280645;28;20231;-71
2021/05/08 15:37:13;;;;;;;4.80;3.10;;;;;;;11.91;46.38;100091.94;10310085;28;20310;-71
2021/05/08 15:42:15;;;;;;;5.60;3.15;;;;;;;12.42;47.07;100055.81;10311764;28;20245;-71
2021/05/08 15:47:17;;;;;;;6.32;3.88;;;;;;;12.42;54.96;100038.81;10254705;28;20240;-71
2021/05/08 15:52:19;;;;;;;4.45;3.15;;;;;;;11.81;51.06;100053.41;10248995;28;20278;-71
2021/05/08 15:57:24;;;;;;;4.45;3.20;;;;;;;11.84;50.94;100037.81;10250663;28;20267;-72
2021/05/08 16:02:25;;;;;;;4.88;3.72;;;;;;;11.75;52.85;100041.34;10246366;28;20291;-71
2021/05/08 16:07:28;;;;;;;5.72;3.47;;;;;;;11.53;52.90;100030.88;10236204;28;20244;-71
2021/05/08 16:12:31;;;;;;;6.05;4.13;;;;;;;11.45;56.10;100018.94;10247082;28;20339;-71
2021/05/08 16:17:33;;;;;;;10.63;6.22;;;;;;;11.12;56.90;100005.81;10250151;28;20240;-71
2021/05/08 16:22:37;;;;;;;5.45;3.67;;;;;;;11.22;59.75;100004.91;10249104;28;20258;-71
2021/05/08 16:27:40;;;;;;;3.97;3.13;;;;;;;11.18;60.90;100005.31;10239647;28;20752;-71
2021/05/08 16:32:42;;;;;;;4.53;3.58;;;;;;;11.09;62.39;100001.56;10235448;28;22008;-71
2021/05/08 16:37:45;;;;;;;5.53;5.00;;;;;;;10.87;64.64;99996.41;10246946;28;20706;-71
2021/05/08 16:42:47;;;;;;;8.80;7.63;;;;;;;10.82;68.37;99999.50;10237211;28;20240;-71
2021/05/08 16:47:49;;;;;;;12.25;9.95;;;;;;;11.10;67.11;99989.81;10225833;28;20336;-69
2021/05/08 16:52:52;;;;;;;10.93;8.07;;;;;;;11.24;64.71;99984.13;10125409;28;20242;-69
2021/05/08 16:57:55;;;;;;;7.10;5.03;;;;;;;11.22;64.76;99963.72;10114554;28;20731;-71
2021/05/08 17:02:56;;;;;;;5.38;4.60;;;;;;;10.98;61.54;99980.19;10111197;28;20239;-71
2021/05/08 17:07:58;;;;;;;8.38;4.88;;;;;;;11.17;61.87;99965.97;10119494;28;20247;-71
2021/05/08 17:13:01;;;;;;;6.28;5.18;;;;;;;11.15;61.48;99946.44;10139650;28;20384;-71
2021/05/08 17:18:06;;;;;;;5.40;3.97;;;;;;;11.04;58.98;99932.09;10127774;28;20237;-71
2021/05/08 17:23:08;;;;;;;6.35;4.25;;;;;;;10.90;59.48;99956.69;10118177;28;20243;-71
2021/05/08 17:28:11;;;;;;;6.72;3.75;;;;;;;10.34;57.90;99965.22;10104221;28;20257;-71
2021/05/08 17:33:13;;;;;;;6.97;3.22;;;;;;;11.18;56.02;99951.53;10105309;28;20254;-71
2021/05/08 17:38:15;;;;;;;3.88;3.50;;;;;;;11.52;54.25;99943.94;10105666;28;20242;-71
2021/05/08 17:43:18;;;;;;;5.60;3.28;;;;;;;11.62;53.80;99911.66;10120027;28;20304;-71
2021/05/08 17:48:20;;;;;;;3.92;3.28;;;;;;;11.73;52.60;99904.25;10140981;28;20243;-71
2021/05/08 17:53:22;;;;;;;6.45;3.58;;;;;;;11.73;51.97;99892.66;10103967;28;20249;-71
2021/05/08 17:58:25;;;;;;;8.35;3.28;;;;;;;11.85;52.27;99893.38;10103541;28;20762;-71
2021/05/08 18:03:26;;;;;;;4.57;3.20;;;;;;;11.90;52.49;99894.63;10114937;28;21560;-71
2021/05/08 18:08:29;;;;;;;4.18;3.38;;;;;;;11.86;52.71;99873.53;10142355;28;20393;-70
2021/05/08 18:13:32;;;;;;;6.25;3.75;;;;;;;11.88;52.41;99880.47;10144840;28;20249;-70
2021/05/08 18:18:34;;;;;;;5.18;3.58;;;;;;;11.87;52.57;99876.06;10185858;28;20269;-70
2021/05/08 18:23:35;;;;;;;5.82;3.58;;;;;;;11.85;52.12;99866.47;10189877;28;20239;-69
2021/05/08 18:28:38;;;;;;;4.85;3.70;;;;;;;11.83;52.64;99854.97;10190590;28;20274;-70
2021/05/08 18:33:41;;;;;;;5.00;4.03;;;;;;;11.79;52.54;99850.88;10186014;28;20243;-70
2021/05/08 18:38:43;;;;;;;6.15;4.15;;;;;;;11.82;52.61;99840.69;10139162;28;20253;-70
2021/05/08 18:43:46;;;;;;;9.05;4.32;;;;;;;11.80;51.98;99836.44;10142484;28;20639;-70
2021/05/08 18:48:48;;;;;;;4.65;3.60;;;;;;;11.63;51.06;99830.81;10146079;28;20232;-70
2021/05/08 18:53:51;;;;;;;4.82;3.75;;;;;;;11.87;51.26;99829.47;10143505;28;20294;-70
2021/05/08 18:58:53;;;;;;;5.80;3.50;;;;;;;11.94;49.94;99831.44;10123059;28;20724;-70
2021/05/08 19:04:00;;;;;;;4.55;3.35;;;;;;;12.04;49.00;99834.09;10124218;28;20382;-70
2021/05/08 19:09:03;;;;;;;6.55;3.78;;;;;;;12.11;48.55;99829.81;10125212;28;20270;-70
2021/05/08 19:14:05;;;;;;;4.68;3.50;;;;;;;12.18;48.31;99827.38;10143227;28;20596;-72
2021/05/08 19:19:07;;;;;;;3.80;3.00;;;;;;;12.20;47.66;99828.06;10187272;28;20231;-71
2021/05/08 19:24:10;;;;;;;3.50;2.80;;;;;;;12.35;46.78;99820.38;10167029;28;20232;-70
2021/05/08 19:29:15;;;;;;;5.22;3.50;;;;;;;12.42;46.36;99820.63;10144348;28;20241;-70
2021/05/08 19:34:17;;;;;;;3.95;3.10;;;;;;;12.46;46.33;99814.81;10127036;28;20238;-70
2021/05/08 19:39:19;;;;;;;6.55;3.25;;;;;;;12.55;46.34;99813.88;10143109;28;20258;-70
2021/05/08 19:44:23;;;;;;;4.38;3.25;;;;;;;12.55;45.97;99800.41;10144786;28;20243;-70
2021/05/08 19:49:25;;;;;;;4.03;3.33;;;;;;;12.63;45.96;99804.22;10144183;28;20739;-71
2021/05/08 19:54:27;;;;;;;5.25;3.45;;;;;;;12.60;46.00;99787.34;10140576;28;20369;-70
2021/05/08 19:59:30;;;;;;;3.85;2.97;;;;;;;12.57;46.10;99786.81;10140144;28;20257;-70
2021/05/08 20:04:36;;;;;;;4.45;2.75;;;;;;;12.56;46.09;99779.69;10144599;28;20269;-71
2021/05/08 20:09:39;;;;;;;3.75;2.67;;;;;;;12.56;46.09;99779.69;10144760;28;20604;-71
2021/05/08 20:14:44;;;;;;;3.78;2.70;;;;;;;12.66;45.97;99776.97;10154745;28;20258;-71
2021/05/08 20:19:46;;;;;;;3.90;2.47;;;;;;;12.76;45.51;99778.59;10181398;28;20235;-71
2021/05/08 20:24:50;;;;;;;2.90;2.70;;;;;;;12.80;45.37;99771.03;10186126;28;20236;-71
2021/05/08 20:29:53;;;;;;;3.22;2.60;;;;;;;12.90;45.01;99774.50;10185453;28;20233;-71
2021/05/08 20:34:56;;;;;;;2.67;2.25;;;;;;;12.91;45.58;99778.88;10187123;28;20231;-71
2021/05/08 20:39:58;;;;;;;5.40;2.72;;;;;;;12.94;45.32;99781.25;10193741;28;20238;-71
2021/05/08 20:45:01;;;;;;;2.72;2.05;;;;;;;12.88;45.46;99786.44;10189305;28;20843;-71
2021/05/08 20:50:04;;;;;;;2.50;2.30;;;;;;;12.92;45.39;99775.22;10185564;28;20248;-71
2021/05/08 20:55:07;;;;;;;2.88;2.35;;;;;;;12.85;45.73;99781.34;10185831;28;20330;-71
2021/05/08 21:00:12;;;;;;;3.00;2.40;;;;;;;12.90;45.92;99777.19;10187113;28;20252;-70
2021/05/08 21:05:14;;;;;;;4.22;2.75;;;;;;;12.89;45.84;99780.03;10186934;28;20251;-71
2021/05/08 21:10:16;;;;;;;2.47;2.17;;;;;;;12.91;45.89;99772.66;10184904;28;20625;-71
2021/05/08 21:15:19;;;;;;;3.90;3.30;;;;;;;12.83;46.65;99768.03;10130109;28;20266;-71
2021/05/08 21:20:25;;;;;;;3.75;2.50;;;;;;;12.68;46.77;99769.56;10115283;28;20330;-71
2021/05/08 21:25:27;;;;;;;3.45;2.50;;;;;;;12.65;47.13;99754.56;10104632;28;20709;-71
2021/05/08 21:30:30;;;;;;;3.30;2.70;;;;;;;12.54;47.62;99744.00;10103520;28;20240;-71
2021/05/08 21:42:18;;;;;;;3.25;2.40;;;;;;;12.56;48.10;99736.59;10102000;28;20224;-70
2021/05/08 21:47:21;;;;;;;3.95;2.25;;;;;;;12.85;47.80;99749.03;10112192;28;20238;-71
2021/05/08 21:52:23;;;;;;;3.67;2.40;;;;;;;12.74;48.12;99736.63;10120228;28;20949;-71
2021/05/08 21:57:25;;;;;;;3.50;2.90;;;;;;;12.82;48.56;99742.09;10126141;28;20251;-71
2021/05/08 22:02:29;;;;;;;3.08;2.40;;;;;;;12.83;48.47;99735.69;10127646;28;20243;-71
2021/05/08 22:07:31;;;;;;;3.03;2.50;;;;;;;12.74;48.57;99742.84;10114570;28;20259;-71
2021/05/08 22:12:33;;;;;;;2.42;2.22;;;;;;;12.85;48.55;99744.47;10106483;28;20713;-71
2021/05/08 22:17:36;;;;;;;3.30;2.80;;;;;;;12.80;48.87;99741.38;10176401;28;25821;-71
2021/05/08 22:22:39;;;;;;;2.80;2.50;;;;;;;12.85;48.83;99738.25;10191178;28;20239;-71
2021/05/08 22:27:41;;;;;;;4.88;3.00;;;;;;;12.69;49.20;99742.47;10189821;28;21068;-71
2021/05/08 22:32:44;;;;;;;3.65;2.75;;;;;;;12.69;49.30;99742.47;10193921;28;20251;-71
2021/05/08 22:37:46;;;;;;;4.78;2.65;;;;;;;12.69;49.52;99742.47;10190745;28;20846;-71
2021/05/08 22:42:48;;;;;;;4.68;2.88;;;;;;;12.58;49.85;99750.78;10190070;28;20244;-71
2021/05/08 22:47:51;;;;;;;4.63;2.78;;;;;;;12.59;50.14;99745.25;10189324;28;20246;-71
2021/05/08 22:52:54;;;;;;;3.88;2.50;;;;;;;12.47;50.41;99737.53;10195989;28;20235;-71
2021/05/08 22:57:56;;;;;;;3.83;2.78;;;;;;;12.52;50.29;99743.31;10199462;28;20239;-71
2021/05/08 23:02:59;;;;;;;3.85;2.50;;;;;;;12.45;50.37;99742.22;10198224;28;20300;-71
2021/05/08 23:08:01;;;;;;;2.65;2.30;;;;;;;12.42;50.24;99732.59;10173162;28;20248;-71
2021/05/08 23:13:03;;;;;;;2.85;2.55;;;;;;;12.49;49.98;99739.06;10177759;28;20250;-71
2021/05/08 23:18:05;;;;;;;4.10;2.53;;;;;;;12.53;50.06;99728.81;10157753;28;20326;-71
2021/05/08 23:23:07;;;;;;;3.75;2.65;;;;;;;12.50;50.21;99723.75;10158163;28;20240;-71
2021/05/08 23:28:10;;;;;;;5.07;2.50;;;;;;;12.42;50.28;99726.34;10160386;28;20263;-71